Time;durP1;ratioP1;P1;durP2;ratioP2;P2;SDS_P1;SDS_P2;PMS_P1;PMS_P2;Temp;Humidity;BMP_temperature;BMP_pressure;BME280_temperature;BME280_humidity;BME280_pressure;Samples;Min_cycle;Max_cycle;Signal;HPM_P1;HPM_P2
2023/04/25 00:01:17;;;;;;;0.75;0.75;;;9.50;99.90;;;;;;4400654;32;20491;-68
2023/04/25 00:03:42;;;;;;;2.83;0.88;;;9.50;99.90;;;;;;4401209;32;20144;-70
2023/04/25 00:06:08;;;;;;;0.43;0.43;;;9.40;99.90;;;;;;4398564;32;20432;-72
2023/04/25 00:08:34;;;;;;;0.30;0.30;;;9.40;99.90;;;;;;4399331;32;20080;-70
2023/04/25 00:11:01;;;;;;;1.95;0.52;;;9.40;99.90;;;;;;4398708;32;20090;-69
2023/04/25 00:13:26;;;;;;;0.45;0.45;;;9.40;99.90;;;;;;4403914;32;20502;-69
2023/04/25 00:15:53;;;;;;;0.40;0.40;;;9.50;99.90;;;;;;4400464;32;20102;-71
2023/04/25 00:18:19;;;;;;;0.30;0.30;;;9.40;99.90;;;;;;4398528;32;20149;-71
2023/04/25 00:20:46;;;;;;;0.40;0.40;;;9.40;99.90;;;;;;4398883;32;20073;-71
2023/04/25 00:23:17;;;;;;;0.40;0.40;;;9.40;99.90;;;;;;4396881;32;20098;-69
2023/04/25 00:25:44;;;;;;;0.37;0.37;;;9.40;99.90;;;;;;4402178;32;20838;-70
2023/04/25 00:28:09;;;;;;;1.87;0.70;;;9.30;99.90;;;;;;4397785;32;20097;-71
2023/04/25 00:30:34;;;;;;;0.40;0.40;;;9.40;99.90;;;;;;4399184;32;20094;-69
2023/04/25 00:33:00;;;;;;;0.40;0.40;;;9.30;99.90;;;;;;4402515;32;20070;-72
2023/04/25 00:35:26;;;;;;;1.65;1.25;;;9.40;99.90;;;;;;4399836;32;20538;-70
2023/04/25 00:37:51;;;;;;;0.30;0.30;;;9.40;99.90;;;;;;4398017;32;20082;-71
2023/04/25 00:40:16;;;;;;;0.30;0.30;;;9.40;99.90;;;;;;4398931;32;20162;-69
2023/04/25 00:42:42;;;;;;;0.32;0.32;;;9.40;99.90;;;;;;4400321;32;20065;-69
2023/04/25 00:45:12;;;;;;;0.75;0.73;;;9.50;99.90;;;;;;4399175;32;20518;-69
2023/04/25 00:47:38;;;;;;;0.50;0.50;;;9.40;99.90;;;;;;4398008;32;20085;-69
2023/04/25 00:50:04;;;;;;;0.60;0.60;;;9.50;99.90;;;;;;4397892;32;20065;-72
2023/04/25 00:52:29;;;;;;;0.40;0.40;;;9.50;99.90;;;;;;4399766;32;20437;-69
2023/04/25 00:54:55;;;;;;;0.30;0.30;;;9.40;99.90;;;;;;4400174;32;20073;-69
2023/04/25 00:57:20;;;;;;;3.97;0.73;;;9.40;99.90;;;;;;4398801;32;20090;-69
2023/04/25 00:59:46;;;;;;;0.40;0.40;;;9.40;99.90;;;;;;4397323;32;20114;-70
2023/04/25 01:02:12;;;;;;;1.70;0.70;;;9.30;99.90;;;;;;4399621;32;20090;-69
2023/04/25 01:04:38;;;;;;;0.37;0.37;;;9.30;99.90;;;;;;4402623;32;20509;-70
2023/04/25 01:07:04;;;;;;;0.68;0.68;;;9.30;99.90;;;;;;4400593;32;20081;-71
2023/04/25 01:09:31;;;;;;;0.25;0.25;;;9.40;99.90;;;;;;4400694;32;20069;-70
2023/04/25 01:11:57;;;;;;;0.50;0.50;;;9.40;99.90;;;;;;4402151;32;20427;-69
2023/04/25 01:14:23;;;;;;;1.02;0.52;;;9.40;99.90;;;;;;4403062;32;20062;-70
2023/04/25 01:16:48;;;;;;;0.40;0.40;;;9.30;99.90;;;;;;4398406;32;20073;-72
2023/04/25 01:19:17;;;;;;;2.72;1.27;;;9.30;99.90;;;;;;4398455;32;20128;-70
2023/04/25 01:21:43;;;;;;;0.50;0.50;;;9.40;99.90;;;;;;4401490;32;20054;-70
2023/04/25 01:24:09;;;;;;;0.62;0.62;;;9.30;99.90;;;;;;4398354;32;20182;-73
2023/04/25 01:26:35;;;;;;;0.80;0.80;;;9.30;99.90;;;;;;4398922;32;20410;-70
2023/04/25 01:29:01;;;;;;;1.45;0.88;;;9.30;99.90;;;;;;4401643;32;20098;-72
2023/04/25 01:31:27;;;;;;;0.30;0.30;;;9.30;99.90;;;;;;4407268;32;20114;-70
2023/04/25 01:33:53;;;;;;;0.40;0.40;;;9.30;99.90;;;;;;4408150;32;20549;-71
2023/04/25 01:36:19;;;;;;;0.22;0.22;;;9.30;99.90;;;;;;4407683;32;20589;-70
2023/04/25 01:38:47;;;;;;;2.28;0.50;;;9.30;99.90;;;;;;4408535;32;20160;-71
2023/04/25 01:41:13;;;;;;;1.05;0.68;;;9.30;99.90;;;;;;4409432;32;20081;-70
2023/04/25 01:43:38;;;;;;;0.95;0.60;;;9.30;99.90;;;;;;4408754;32;20224;-70
2023/04/25 01:46:04;;;;;;;0.30;0.30;;;9.30;99.90;;;;;;4406053;32;20146;-71
2023/04/25 01:48:30;;;;;;;1.33;1.00;;;9.30;99.90;;;;;;4407889;32;20094;-71
2023/04/25 01:50:55;;;;;;;0.50;0.50;;;9.30;99.90;;;;;;4407892;32;20116;-70
2023/04/25 01:53:21;;;;;;;0.40;0.40;;;9.40;99.90;;;;;;4407306;32;20128;-70
2023/04/25 01:55:46;;;;;;;1.52;0.70;;;9.40;99.90;;;;;;4407766;32;20122;-73
2023/04/25 01:58:12;;;;;;;0.30;0.30;;;9.40;99.90;;;;;;4408896;32;20086;-71
2023/04/25 02:00:40;;;;;;;0.30;0.30;;;9.40;99.90;;;;;;4406788;32;20771;-70
2023/04/25 02:03:06;;;;;;;0.40;0.40;;;9.40;99.90;;;;;;4408586;32;20086;-72
2023/04/25 02:05:39;;;;;;;0.47;0.47;;;9.40;99.90;;;;;;4409524;32;20066;-70
2023/04/25 02:08:07;;;;;;;0.52;0.50;;;9.40;99.90;;;;;;4409207;32;20105;-70
2023/04/25 02:10:34;;;;;;;0.40;0.40;;;9.30;99.90;;;;;;4407597;32;20092;-71
2023/04/25 02:12:59;;;;;;;0.40;0.40;;;9.40;99.90;;;;;;4410051;32;20121;-70
2023/04/25 02:15:25;;;;;;;0.30;0.30;;;9.20;99.90;;;;;;4408281;32;20482;-71
2023/04/25 02:17:52;;;;;;;0.30;0.30;;;9.20;99.90;;;;;;4409067;32;20070;-71
2023/04/25 02:20:19;;;;;;;0.40;0.40;;;9.20;99.90;;;;;;4408166;32;20066;-70
2023/04/25 02:22:45;;;;;;;0.50;0.50;;;9.20;99.90;;;;;;4409318;32;20094;-71
2023/04/25 02:25:11;;;;;;;0.55;0.55;;;9.30;99.90;;;;;;4408668;32;20058;-70
2023/04/25 02:27:37;;;;;;;0.40;0.40;;;9.30;99.90;;;;;;4408908;32;20080;-70
2023/04/25 02:30:04;;;;;;;1.75;0.62;;;9.20;99.90;;;;;;4406920;32;20151;-68
2023/04/25 02:32:30;;;;;;;0.40;0.40;;;9.20;99.90;;;;;;4406701;32;20148;-70
2023/04/25 02:34:58;;;;;;;0.70;0.70;;;9.20;99.90;;;;;;4407375;32;20532;-69
2023/04/25 02:37:24;;;;;;;0.40;0.40;;;9.20;99.90;;;;;;4406912;32;20090;-68
2023/04/25 02:39:50;;;;;;;0.40;0.40;;;9.20;99.90;;;;;;4407157;32;20121;-70
2023/04/25 02:42:15;;;;;;;1.95;1.23;;;9.10;99.90;;;;;;4407325;32;20070;-69
2023/04/25 02:44:41;;;;;;;0.50;0.50;;;9.10;99.90;;;;;;4407706;32;20061;-71
2023/04/25 02:47:06;;;;;;;0.22;0.22;;;9.20;99.90;;;;;;4407824;32;20077;-69
2023/04/25 02:49:32;;;;;;;25.12;0.90;;;9.10;99.90;;;;;;4410924;32;20086;-69
2023/04/25 02:51:57;;;;;;;1.85;0.77;;;9.20;99.90;;;;;;4408662;32;20579;-69
2023/04/25 02:54:23;;;;;;;0.60;0.60;;;9.10;99.90;;;;;;4409589;32;20062;-69
2023/04/25 02:56:48;;;;;;;0.37;0.37;;;9.10;99.90;;;;;;4407869;32;20097;-71
2023/04/25 02:59:14;;;;;;;0.50;0.50;;;9.10;99.90;;;;;;4408545;32;20113;-72
2023/04/25 03:01:39;;;;;;;0.45;0.45;;;9.10;99.90;;;;;;4409243;32;20089;-71
2023/04/25 03:04:05;;;;;;;1.90;1.20;;;9.00;99.90;;;;;;4407570;32;20457;-70
2023/04/25 03:06:30;;;;;;;0.40;0.40;;;9.00;99.90;;;;;;4408629;32;20101;-71
2023/04/25 03:08:56;;;;;;;6.85;1.95;;;8.90;99.90;;;;;;4408239;32;20097;-71
2023/04/25 03:11:21;;;;;;;0.50;0.50;;;9.00;99.90;;;;;;4408326;32;20729;-69
2023/04/25 03:13:47;;;;;;;1.55;0.60;;;9.00;99.90;;;;;;4407069;32;20103;-69
2023/04/25 03:16:12;;;;;;;0.40;0.40;;;9.00;99.90;;;;;;4410316;32;20102;-69
2023/04/25 03:18:38;;;;;;;0.93;0.65;;;9.00;99.90;;;;;;4410859;32;20557;-68
2023/04/25 03:21:03;;;;;;;1.37;0.35;;;9.00;99.90;;;;;;4408603;32;20148;-70
2023/04/25 03:23:29;;;;;;;0.47;0.47;;;9.00;99.90;;;;;;4410046;32;20073;-70
2023/04/25 03:25:54;;;;;;;1.85;1.00;;;9.00;99.90;;;;;;4410545;32;20120;-69
2023/04/25 03:28:20;;;;;;;0.57;0.57;;;9.00;99.90;;;;;;4409435;32;20094;-69
2023/04/25 03:30:45;;;;;;;0.47;0.47;;;9.00;99.90;;;;;;4400582;32;20066;-69
2023/04/25 03:33:11;;;;;;;0.60;0.60;;;9.00;99.90;;;;;;4401132;32;20070;-70
2023/04/25 03:35:36;;;;;;;0.40;0.40;;;9.10;99.90;;;;;;4399996;32;20089;-70
2023/04/25 03:38:02;;;;;;;0.80;0.68;;;9.00;99.90;;;;;;4402032;32;20066;-70
2023/04/25 03:40:28;;;;;;;0.50;0.50;;;9.00;99.90;;;;;;4400302;32;20381;-69
2023/04/25 03:42:53;;;;;;;0.30;0.30;;;9.00;99.90;;;;;;4402033;32;20086;-69
2023/04/25 03:45:19;;;;;;;0.37;0.37;;;9.00;99.90;;;;;;4402451;32;20069;-69
2023/04/25 03:47:45;;;;;;;0.50;0.50;;;9.00;99.90;;;;;;4397277;32;20150;-69
2023/04/25 03:50:10;;;;;;;0.73;0.73;;;9.00;99.90;;;;;;4399616;32;20090;-70
2023/04/25 03:52:36;;;;;;;2.00;0.70;;;8.90;99.90;;;;;;4402129;32;20081;-70
2023/04/25 03:55:01;;;;;;;0.30;0.30;;;8.90;99.90;;;;;;4399747;32;20070;-69
2023/04/25 03:57:27;;;;;;;0.32;0.32;;;8.90;99.90;;;;;;4404048;32;20079;-68
2023/04/25 03:59:52;;;;;;;0.40;0.40;;;8.80;99.90;;;;;;4401596;32;20091;-69
2023/04/25 04:02:18;;;;;;;0.60;0.60;;;8.90;99.90;;;;;;4399952;32;20530;-69
2023/04/25 04:04:44;;;;;;;0.40;0.40;;;8.90;99.90;;;;;;4401869;32;20146;-70
2023/04/25 04:07:10;;;;;;;0.95;0.45;;;8.90;99.90;;;;;;4404226;32;20074;-71
2023/04/25 04:09:35;;;;;;;0.43;0.43;;;8.80;99.90;;;;;;4398219;32;20097;-71
2023/04/25 04:12:01;;;;;;;0.60;0.60;;;8.80;99.90;;;;;;4402149;32;20106;-70
2023/04/25 04:14:28;;;;;;;0.85;0.85;;;8.80;99.90;;;;;;4403691;32;20069;-70
2023/04/25 04:16:53;;;;;;;4.12;2.45;;;8.80;99.90;;;;;;4404228;32;20089;-71
2023/04/25 04:19:18;;;;;;;0.37;0.37;;;8.90;99.90;;;;;;4404262;32;20070;-72
2023/04/25 04:21:44;;;;;;;0.35;0.35;;;8.90;99.90;;;;;;4390919;32;20082;-71
2023/04/25 04:24:10;;;;;;;0.65;0.65;;;8.90;99.90;;;;;;4396594;32;20110;-69
2023/04/25 04:26:36;;;;;;;0.45;0.45;;;8.90;99.90;;;;;;4402297;32;20073;-70
2023/04/25 04:29:02;;;;;;;0.70;0.70;;;8.80;99.90;;;;;;4401485;32;20825;-71
2023/04/25 04:31:29;;;;;;;3.72;0.70;;;8.80;99.90;;;;;;4408212;32;20077;-70
2023/04/25 04:33:55;;;;;;;0.40;0.40;;;8.80;99.90;;;;;;4409328;32;20093;-71
2023/04/25 04:36:21;;;;;;;1.00;0.45;;;8.80;99.90;;;;;;4410947;32;20520;-70
2023/04/25 04:38:47;;;;;;;0.30;0.30;;;8.80;99.90;;;;;;4409247;32;20086;-71
2023/04/25 04:41:12;;;;;;;6.25;0.73;;;8.90;99.90;;;;;;4409448;32;20061;-71
2023/04/25 04:43:39;;;;;;;1.37;0.85;;;8.90;99.90;;;;;;4409998;32;20077;-72
2023/04/25 04:46:05;;;;;;;19.70;0.52;;;9.00;99.90;;;;;;4410264;32;20443;-71
2023/04/25 04:48:34;;;;;;;0.55;0.55;;;9.00;99.90;;;;;;4409630;32;20074;-71
2023/04/25 04:51:00;;;;;;;0.60;0.60;;;9.00;99.90;;;;;;4410251;32;20057;-70
2023/04/25 04:53:25;;;;;;;0.50;0.50;;;9.00;99.90;;;;;;4409817;32;20181;-71
2023/04/25 04:55:51;;;;;;;0.40;0.40;;;9.10;99.90;;;;;;4409621;32;20101;-70
2023/04/25 04:58:16;;;;;;;1.30;0.90;;;9.10;99.90;;;;;;4410357;32;20121;-71
2023/04/25 05:00:42;;;;;;;0.50;0.50;;;9.20;99.90;;;;;;4404979;32;20462;-70
2023/04/25 05:03:07;;;;;;;1.75;0.68;;;9.20;99.90;;;;;;4404613;32;21310;-71
2023/04/25 05:05:34;;;;;;;1.08;0.93;;;9.10;99.90;;;;;;4405592;32;20086;-70
2023/04/25 05:07:59;;;;;;;0.40;0.40;;;9.00;99.90;;;;;;4407328;32;20081;-71
2023/04/25 05:10:25;;;;;;;0.60;0.60;;;9.00;99.90;;;;;;4406924;32;21060;-70
2023/04/25 05:12:50;;;;;;;1.98;0.73;;;9.00;99.90;;;;;;4398564;32;20109;-72
2023/04/25 05:15:16;;;;;;;0.50;0.50;;;9.00;99.90;;;;;;4406034;32;20082;-70
2023/04/25 05:17:42;;;;;;;0.70;0.70;;;9.00;99.90;;;;;;4394626;32;20593;-71
2023/04/25 05:20:09;;;;;;;0.50;0.50;;;9.00;99.90;;;;;;4403431;32;20081;-70
2023/04/25 05:22:35;;;;;;;0.35;0.35;;;9.00;99.90;;;;;;4407879;32;20549;-71
2023/04/25 05:25:01;;;;;;;0.35;0.35;;;9.00;99.90;;;;;;4408324;32;20070;-70
2023/04/25 05:27:26;;;;;;;0.50;0.50;;;9.10;99.90;;;;;;4396508;32;20093;-70
2023/04/25 05:29:52;;;;;;;0.43;0.43;;;9.10;99.90;;;;;;4398154;32;20415;-70
2023/04/25 05:32:18;;;;;;;0.47;0.47;;;9.10;99.90;;;;;;4382116;32;20086;-69
2023/04/25 05:34:45;;;;;;;0.65;0.65;;;9.00;99.90;;;;;;4400364;32;20129;-70
2023/04/25 05:37:11;;;;;;;0.55;0.50;;;8.90;99.90;;;;;;4400566;32;20117;-71
2023/04/25 05:39:38;;;;;;;0.80;0.80;;;9.00;99.90;;;;;;4397363;32;20077;-70
2023/04/25 05:42:05;;;;;;;0.50;0.50;;;9.10;99.90;;;;;;4401477;32;20517;-75
2023/04/25 05:44:31;;;;;;;0.57;0.57;;;9.20;99.90;;;;;;4401558;32;20183;-71
2023/04/25 05:46:57;;;;;;;1.50;0.85;;;9.20;99.90;;;;;;4405822;32;20113;-72
2023/04/25 05:49:22;;;;;;;2.35;1.70;;;9.20;99.90;;;;;;4403817;32;20089;-72
2023/04/25 05:51:47;;;;;;;0.62;0.62;;;9.20;99.90;;;;;;4405708;32;20536;-71
2023/04/25 05:54:13;;;;;;;0.82;0.82;;;9.10;99.90;;;;;;4403038;32;20069;-73
2023/04/25 05:56:41;;;;;;;0.60;0.60;;;9.10;99.90;;;;;;4402553;32;20113;-73
2023/04/25 05:59:06;;;;;;;0.70;0.70;;;9.10;99.90;;;;;;4388461;32;20093;-76
2023/04/25 06:01:32;;;;;;;0.30;0.30;;;9.20;99.90;;;;;;4367595;32;20094;-75
2023/04/25 06:03:57;;;;;;;0.52;0.50;;;9.20;99.90;;;;;;4370511;32;20224;-73
2023/04/25 06:06:23;;;;;;;1.12;0.77;;;9.10;99.90;;;;;;4366872;32;20409;-76
2023/04/25 06:08:49;;;;;;;0.40;0.40;;;9.10;99.90;;;;;;4376499;32;20097;-74
2023/04/25 06:11:14;;;;;;;0.93;0.93;;;9.20;99.90;;;;;;4380855;32;20101;-74
2023/04/25 06:13:40;;;;;;;0.65;0.65;;;9.10;99.90;;;;;;4371595;32;20126;-76
2023/04/25 06:16:06;;;;;;;0.55;0.55;;;9.20;99.90;;;;;;4372931;32;20081;-74
2023/04/25 06:18:31;;;;;;;0.52;0.52;;;9.30;99.90;;;;;;4383038;32;20156;-77
2023/04/25 06:20:56;;;;;;;0.57;0.50;;;9.30;99.90;;;;;;4381053;32;20097;-73
2023/04/25 06:23:22;;;;;;;1.12;1.02;;;9.30;99.90;;;;;;4383581;32;20152;-74
2023/04/25 06:25:48;;;;;;;0.60;0.60;;;9.20;99.90;;;;;;4376418;32;22011;-74
2023/04/25 06:28:13;;;;;;;1.77;0.80;;;9.30;99.90;;;;;;4377441;32;20097;-71
2023/04/25 06:30:39;;;;;;;0.45;0.45;;;9.20;99.90;;;;;;4376605;32;21255;-74
2023/04/25 06:33:08;;;;;;;0.90;0.80;;;9.20;99.90;;;;;;4370932;32;20167;-76
2023/04/25 06:35:34;;;;;;;2.28;1.40;;;9.20;99.90;;;;;;4371901;32;20856;-71
2023/04/25 06:38:00;;;;;;;0.50;0.50;;;9.20;99.90;;;;;;4369683;32;20085;-73
2023/04/25 06:40:25;;;;;;;0.40;0.40;;;9.10;99.90;;;;;;4377911;32;20093;-73
2023/04/25 06:42:51;;;;;;;0.45;0.45;;;9.10;99.90;;;;;;4367004;32;20074;-74
2023/04/25 06:45:16;;;;;;;0.30;0.30;;;9.20;99.90;;;;;;4364692;32;20111;-75
2023/04/25 06:47:42;;;;;;;0.37;0.37;;;9.20;99.90;;;;;;4354418;32;20472;-74
2023/04/25 06:50:08;;;;;;;0.40;0.40;;;9.30;99.90;;;;;;4361866;32;20564;-73
2023/04/25 06:52:34;;;;;;;0.40;0.40;;;9.30;99.90;;;;;;4367493;32;20114;-72
2023/04/25 06:54:59;;;;;;;0.50;0.50;;;9.20;99.90;;;;;;4366293;32;20438;-74
2023/04/25 06:57:25;;;;;;;0.30;0.30;;;9.20;99.90;;;;;;4372896;32;20674;-73
2023/04/25 06:59:51;;;;;;;21.02;0.50;;;9.20;99.90;;;;;;4375095;32;20105;-75
2023/04/25 07:02:16;;;;;;;0.68;0.65;;;9.30;99.90;;;;;;4370709;32;20070;-72
2023/04/25 07:04:42;;;;;;;0.30;0.30;;;9.40;99.90;;;;;;4368538;32;20229;-74
2023/04/25 07:07:07;;;;;;;0.65;0.65;;;9.30;99.90;;;;;;4363608;32;21329;-73
2023/04/25 07:09:33;;;;;;;2.58;1.52;;;9.20;99.90;;;;;;4361428;32;20767;-73
2023/04/25 07:12:01;;;;;;;0.52;0.52;;;9.10;99.90;;;;;;4361600;32;20094;-75
2023/04/25 07:14:27;;;;;;;0.40;0.40;;;9.00;99.90;;;;;;4355533;32;20848;-72
2023/04/25 07:16:55;;;;;;;0.40;0.40;;;8.80;99.90;;;;;;4362205;32;20126;-75
2023/04/25 07:19:21;;;;;;;0.70;0.62;;;8.90;99.90;;;;;;4360369;32;20509;-75
2023/04/25 07:21:46;;;;;;;0.37;0.37;;;9.00;99.90;;;;;;4359639;32;20098;-70
2023/04/25 07:24:12;;;;;;;0.73;0.70;;;8.90;99.90;;;;;;4343335;32;20541;-75
2023/04/25 07:26:37;;;;;;;0.40;0.40;;;8.80;99.90;;;;;;4346977;32;20121;-72
2023/04/25 07:29:03;;;;;;;0.40;0.40;;;8.60;99.90;;;;;;4354064;32;20677;-72
2023/04/25 07:31:28;;;;;;;0.52;0.52;;;8.70;99.90;;;;;;4360632;32;20236;-75
2023/04/25 07:33:54;;;;;;;0.85;0.77;;;8.80;99.90;;;;;;4358686;32;20103;-73
2023/04/25 07:36:19;;;;;;;10.55;2.95;;;8.80;99.90;;;;;;4364856;32;20612;-73
2023/04/25 07:38:45;;;;;;;0.93;0.88;;;8.90;99.90;;;;;;4370777;32;20164;-72
2023/04/25 07:41:10;;;;;;;1.90;1.37;;;9.00;99.90;;;;;;4372157;32;20094;-74
2023/04/25 07:43:36;;;;;;;1.75;0.70;;;9.10;99.90;;;;;;4371336;32;20532;-71
2023/04/25 07:46:02;;;;;;;1.25;1.15;;;9.10;99.90;;;;;;4373278;32;20489;-74
2023/04/25 07:48:27;;;;;;;0.30;0.30;;;9.00;99.90;;;;;;4370056;32;20120;-72
2023/04/25 07:50:53;;;;;;;0.98;0.90;;;9.10;99.90;;;;;;4378300;32;20144;-75
2023/04/25 07:53:18;;;;;;;14.75;1.25;;;9.10;99.90;;;;;;4362932;32;21840;-76
2023/04/25 07:55:44;;;;;;;0.40;0.40;;;9.10;99.90;;;;;;4358551;32;20935;-74
2023/04/25 07:58:11;;;;;;;0.65;0.65;;;9.10;99.90;;;;;;4368852;32;20446;-73
2023/04/25 08:00:36;;;;;;;0.98;0.90;;;9.20;99.90;;;;;;4365723;32;20434;-73
2023/04/25 08:03:02;;;;;;;2.67;0.60;;;9.20;99.90;;;;;;4372329;32;20762;-75
2023/04/25 08:05:28;;;;;;;0.30;0.30;;;9.20;99.90;;;;;;4380901;32;20084;-74
2023/04/25 08:07:53;;;;;;;0.60;0.60;;;9.30;99.90;;;;;;4377873;32;20772;-74
2023/04/25 08:10:19;;;;;;;0.75;0.60;;;9.20;99.90;;;;;;4378505;32;20571;-73
2023/04/25 08:12:45;;;;;;;2.87;1.58;;;9.30;99.90;;;;;;4370890;32;20176;-74
2023/04/25 08:15:11;;;;;;;0.80;0.80;;;9.30;99.90;;;;;;4374061;32;21416;-70
2023/04/25 08:17:36;;;;;;;0.50;0.50;;;9.30;99.90;;;;;;4372850;32;20112;-73
2023/04/25 08:20:05;;;;;;;3.70;1.80;;;9.40;99.90;;;;;;4372192;32;20547;-73
2023/04/25 08:22:31;;;;;;;0.40;0.40;;;9.70;99.90;;;;;;4373270;32;20517;-74
2023/04/25 08:24:57;;;;;;;0.75;0.75;;;10.00;99.90;;;;;;4372405;32;20674;-74
2023/04/25 08:27:23;;;;;;;0.47;0.47;;;10.20;99.90;;;;;;4378780;32;20100;-73
2023/04/25 08:29:49;;;;;;;1.83;1.20;;;10.30;99.90;;;;;;4375951;32;20101;-72
2023/04/25 08:32:16;;;;;;;6.10;2.33;;;10.30;99.90;;;;;;4376980;32;20915;-70
2023/04/25 08:34:43;;;;;;;1.95;1.50;;;10.30;99.90;;;;;;4377757;32;20093;-71
2023/04/25 08:37:09;;;;;;;0.30;0.30;;;10.40;99.90;;;;;;4378915;32;20089;-75
2023/04/25 08:39:36;;;;;;;0.50;0.50;;;10.30;99.90;;;;;;4383211;32;20507;-73
2023/04/25 08:42:07;;;;;;;0.52;0.52;;;10.20;99.90;;;;;;4385672;32;20316;-74
2023/04/25 08:44:34;;;;;;;0.35;0.35;;;10.40;99.90;;;;;;4378627;32;20085;-74
2023/04/25 08:47:03;;;;;;;0.60;0.60;;;10.60;99.90;;;;;;4384843;32;20807;-74
2023/04/25 08:49:31;;;;;;;0.50;0.50;;;10.70;99.90;;;;;;4382380;32;20093;-74
2023/04/25 08:52:00;;;;;;;0.30;0.30;;;10.60;99.90;;;;;;4378025;32;20102;-75
2023/04/25 08:54:28;;;;;;;0.93;0.93;;;10.70;99.90;;;;;;4376568;32;20110;-73
2023/04/25 08:56:55;;;;;;;2.33;0.80;;;10.50;99.90;;;;;;4383271;32;20651;-74
2023/04/25 08:59:22;;;;;;;3.90;1.25;;;10.50;99.90;;;;;;4386900;32;20182;-73
2023/04/25 09:01:48;;;;;;;0.40;0.40;;;10.40;99.90;;;;;;4384993;32;20077;-73
2023/04/25 09:04:14;;;;;;;15.75;0.77;;;10.60;99.90;;;;;;4382923;32;20550;-74
2023/04/25 09:06:40;;;;;;;2.47;0.95;;;10.80;99.90;;;;;;4381368;32;20062;-74
2023/04/25 09:09:07;;;;;;;0.55;0.55;;;11.10;99.90;;;;;;4383110;32;20137;-74
2023/04/25 09:11:36;;;;;;;0.50;0.50;;;11.40;99.90;;;;;;4376745;32;20814;-74
2023/04/25 09:14:20;;;;;;;8.77;0.95;;;11.70;99.90;;;;;;4372669;32;20119;-73
2023/04/25 09:17:04;;;;;;;1.60;0.93;;;11.70;99.90;;;;;;4375716;32;20762;-75
2023/04/25 09:19:31;;;;;;;1.20;0.95;;;11.50;99.90;;;;;;4355958;32;20092;-74
2023/04/25 09:21:59;;;;;;;0.55;0.55;;;11.50;99.90;;;;;;4373660;32;20175;-73
2023/04/25 09:24:43;;;;;;;0.40;0.40;;;11.60;99.90;;;;;;4371497;32;20302;-71
2023/04/25 09:27:10;;;;;;;0.62;0.62;;;11.80;99.90;;;;;;4358140;32;20093;-75
2023/04/25 09:29:38;;;;;;;0.50;0.50;;;11.60;99.90;;;;;;4377533;32;20478;-75
2023/04/25 09:32:15;;;;;;;21.12;1.20;;;11.80;99.90;;;;;;4357829;32;20142;-73
2023/04/25 09:34:43;;;;;;;0.90;0.60;;;11.80;99.90;;;;;;4375441;32;20106;-75
2023/04/25 09:37:10;;;;;;;0.68;0.68;;;11.70;99.90;;;;;;4364712;32;20088;-75
2023/04/25 09:39:37;;;;;;;3.60;1.25;;;11.80;99.90;;;;;;4368021;32;20834;-73
2023/04/25 09:42:04;;;;;;;0.68;0.43;;;11.80;99.90;;;;;;4379281;32;20189;-75
2023/04/25 09:44:29;;;;;;;2.45;1.05;;;11.80;99.90;;;;;;4375544;32;21300;-72
2023/04/25 09:46:55;;;;;;;3.50;0.82;;;11.60;99.90;;;;;;4377505;32;20223;-73
2023/04/25 09:49:21;;;;;;;0.60;0.60;;;11.50;99.90;;;;;;4377884;32;21386;-73
2023/04/25 09:51:57;;;;;;;0.77;0.52;;;11.70;99.90;;;;;;4372040;32;20085;-73
2023/04/25 09:54:24;;;;;;;2.55;1.20;;;12.00;99.90;;;;;;4379017;32;20632;-73
2023/04/25 09:56:52;;;;;;;0.95;0.82;;;12.10;99.90;;;;;;4381939;32;20399;-72
2023/04/25 09:59:21;;;;;;;0.47;0.47;;;11.90;99.90;;;;;;4385839;32;20150;-73
2023/04/25 10:01:49;;;;;;;1.25;1.15;;;11.90;99.90;;;;;;4379428;32;20617;-72
2023/04/25 10:04:20;;;;;;;0.40;0.40;;;11.60;99.90;;;;;;4378707;32;20085;-73
2023/04/25 10:06:49;;;;;;;7.35;2.90;;;11.40;99.90;;;;;;4380365;32;20114;-74
2023/04/25 10:09:15;;;;;;;0.50;0.50;;;11.40;99.90;;;;;;4379438;32;20509;-74
2023/04/25 10:11:42;;;;;;;0.88;0.73;;;11.30;99.90;;;;;;4370926;32;20132;-74
2023/04/25 10:14:09;;;;;;;0.62;0.40;;;11.40;99.90;;;;;;4371475;32;20612;-74
2023/04/25 10:16:36;;;;;;;1.10;0.70;;;11.50;99.90;;;;;;4371687;32;20625;-74
2023/04/25 10:19:02;;;;;;;0.35;0.35;;;11.40;99.90;;;;;;4379064;32;20548;-73
2023/04/25 10:21:31;;;;;;;9.50;2.00;;;11.50;99.90;;;;;;4381816;32;20101;-74
2023/04/25 10:23:57;;;;;;;0.30;0.30;;;11.60;99.90;;;;;;4385470;32;20452;-76
2023/04/25 10:26:23;;;;;;;1.75;0.85;;;11.50;99.90;;;;;;4387048;32;20224;-74
2023/04/25 10:29:04;;;;;;;0.30;0.30;;;11.50;99.90;;;;;;4391807;32;20445;-73
2023/04/25 10:31:31;;;;;;;0.68;0.68;;;11.60;99.90;;;;;;4389072;32;20176;-75
2023/04/25 10:33:56;;;;;;;1.67;1.23;;;12.10;99.90;;;;;;4388965;32;20101;-74
2023/04/25 10:36:24;;;;;;;2.20;0.93;;;12.30;99.90;;;;;;4384124;32;20109;-75
2023/04/25 10:38:50;;;;;;;4.97;1.75;;;12.60;99.90;;;;;;4383301;32;20065;-74
2023/04/25 10:41:18;;;;;;;0.60;0.60;;;12.30;99.90;;;;;;4389925;32;20451;-74
2023/04/25 10:43:45;;;;;;;0.30;0.30;;;12.20;99.90;;;;;;4385992;32;20097;-74
2023/04/25 10:46:20;;;;;;;5.05;2.25;;;11.90;99.90;;;;;;4381645;32;20101;-75
2023/04/25 10:48:52;;;;;;;0.35;0.35;;;11.70;99.90;;;;;;4374925;32;20100;-76
2023/04/25 10:51:24;;;;;;;4.97;1.15;;;11.70;99.90;;;;;;4376500;32;20110;-75
2023/04/25 10:53:59;;;;;;;0.22;0.22;;;11.70;99.90;;;;;;4380583;32;20113;-75
2023/04/25 10:56:27;;;;;;;0.40;0.40;;;11.50;99.90;;;;;;4374910;32;20094;-76
2023/04/25 10:59:14;;;;;;;0.30;0.30;;;11.50;99.90;;;;;;4384451;32;20094;-76
2023/04/25 11:01:41;;;;;;;3.03;1.67;;;11.60;99.90;;;;;;4376903;32;20089;-76
2023/04/25 11:04:21;;;;;;;2.95;1.48;;;11.60;99.90;;;;;;4389533;32;20109;-77
2023/04/25 11:06:56;;;;;;;0.32;0.32;;;11.80;99.90;;;;;;4369489;32;20101;-76
2023/04/25 11:09:24;;;;;;;3.75;0.50;;;11.70;99.90;;;;;;4382787;32;20548;-78
2023/04/25 11:11:55;;;;;;;0.80;0.80;;;11.50;99.90;;;;;;4380685;32;21625;-76
2023/04/25 11:14:20;;;;;;;0.40;0.40;;;11.30;99.90;;;;;;4386832;32;20794;-76
2023/04/25 11:16:46;;;;;;;0.40;0.40;;;11.30;99.90;;;;;;4376923;32;20112;-75
2023/04/25 11:19:11;;;;;;;0.40;0.40;;;11.40;99.90;;;;;;4380550;32;20548;-72
2023/04/25 11:21:37;;;;;;;20.08;0.57;;;11.30;99.90;;;;;;4386287;32;20089;-73
2023/04/25 11:24:02;;;;;;;0.30;0.30;;;11.00;99.90;;;;;;4390495;32;20115;-74
2023/04/25 11:26:30;;;;;;;0.50;0.50;;;10.90;99.90;;;;;;4384184;32;20758;-74
2023/04/25 11:29:00;;;;;;;0.40;0.40;;;10.90;99.90;;;;;;4382524;32;20772;-71
2023/04/25 11:31:25;;;;;;;0.40;0.40;;;10.90;99.90;;;;;;4373787;32;20097;-70
2023/04/25 11:33:54;;;;;;;0.60;0.60;;;10.90;99.90;;;;;;4381523;32;20236;-76
2023/04/25 11:36:20;;;;;;;0.30;0.30;;;10.80;99.90;;;;;;4379348;32;20703;-75
2023/04/25 11:38:45;;;;;;;5.62;0.60;;;10.80;99.90;;;;;;4367442;32;20085;-75
2023/04/25 11:41:11;;;;;;;0.43;0.43;;;10.70;99.30;;;;;;4379495;32;20655;-75
2023/04/25 11:43:37;;;;;;;0.50;0.50;;;10.60;99.50;;;;;;4371982;32;107329;-72
2023/04/25 11:46:07;;;;;;;0.30;0.30;;;10.70;99.10;;;;;;4374274;32;21261;-74
2023/04/25 11:48:41;;;;;;;0.65;0.65;;;10.70;99.10;;;;;;4383789;32;20245;-72
2023/04/25 11:51:07;;;;;;;3.62;1.52;;;10.80;98.90;;;;;;4388002;32;20585;-70
2023/04/25 11:53:33;;;;;;;0.50;0.50;;;10.90;98.80;;;;;;4389012;32;20098;-73
2023/04/25 11:55:58;;;;;;;0.30;0.30;;;10.90;99.00;;;;;;4381590;32;20100;-74
2023/04/25 11:58:25;;;;;;;1.35;0.93;;;10.90;98.60;;;;;;4384526;32;20086;-72
2023/04/25 12:00:50;;;;;;;1.17;1.08;;;11.00;99.10;;;;;;4387113;32;20149;-72
2023/04/25 12:03:18;;;;;;;1.52;0.93;;;11.00;99.30;;;;;;4385475;32;20118;-74
2023/04/25 12:05:45;;;;;;;0.20;0.20;;;11.00;99.30;;;;;;4394505;32;20104;-70
2023/04/25 12:08:12;;;;;;;0.70;0.47;;;11.00;99.30;;;;;;4386964;32;20256;-73
2023/04/25 12:10:40;;;;;;;1.27;1.17;;;10.90;99.70;;;;;;4386287;32;20840;-72
2023/04/25 12:13:23;;;;;;;0.25;0.25;;;11.00;99.90;;;;;;4383662;32;21020;-70
2023/04/25 12:15:49;;;;;;;0.30;0.30;;;11.00;99.90;;;;;;4389486;32;20092;-73
2023/04/25 12:18:14;;;;;;;0.68;0.62;;;11.20;99.90;;;;;;4387674;32;20102;-72
2023/04/25 12:20:41;;;;;;;8.75;1.67;;;11.30;99.90;;;;;;4397825;32;20114;-73
2023/04/25 12:23:08;;;;;;;0.40;0.40;;;11.30;99.20;;;;;;4394679;32;20089;-72
2023/04/25 12:25:44;;;;;;;0.40;0.40;;;11.30;97.70;;;;;;4405356;32;20450;-74
2023/04/25 12:28:19;;;;;;;0.55;0.55;;;11.20;98.10;;;;;;4398462;32;20093;-75
2023/04/25 12:31:05;;;;;;;2.25;1.45;;;11.20;97.70;;;;;;4391656;32;20222;-73
2023/04/25 12:33:34;;;;;;;2.80;0.65;;;11.40;98.00;;;;;;4376691;32;20110;-76
2023/04/25 12:36:08;;;;;;;1.55;1.05;;;11.60;97.60;;;;;;4376958;32;20101;-72
2023/04/25 12:38:36;;;;;;;1.48;1.05;;;11.90;98.30;;;;;;4384005;32;20168;-71
2023/04/25 12:41:02;;;;;;;0.60;0.60;;;11.90;97.70;;;;;;4384866;32;20290;-75
2023/04/25 12:43:27;;;;;;;0.40;0.40;;;12.00;97.80;;;;;;4389555;32;20089;-71
2023/04/25 12:45:55;;;;;;;0.55;0.55;;;12.20;97.90;;;;;;4385172;32;20081;-75
2023/04/25 12:48:21;;;;;;;0.30;0.30;;;12.10;97.50;;;;;;4381751;32;20141;-70
2023/04/25 12:50:49;;;;;;;2.00;1.25;;;12.00;97.60;;;;;;4385417;32;20517;-70